createdAt,value
2019-06-10T00:01:21.390Z,20.25
2019-06-10T00:03:45.755Z,20.12
2019-06-10T00:06:12.057Z,20.06
2019-06-10T00:08:38.388Z,20.20
2019-06-10T00:11:06.167Z,20.32
2019-06-10T00:13:31.419Z,20.26
2019-06-10T00:15:57.334Z,20.18
2019-06-10T00:18:38.311Z,20.10
2019-06-10T00:20:51.307Z,20.13
2019-06-10T00:23:16.284Z,20.22
2019-06-10T00:25:42.589Z,20.34
2019-06-10T00:28:09.560Z,20.34
2019-06-10T00:30:35.240Z,20.32
2019-06-10T00:33:03.538Z,20.25
2019-06-10T00:35:27.883Z,20.04
2019-06-10T00:37:54.189Z,19.94
2019-06-10T00:40:21.533Z,20.11
2019-06-10T00:42:46.829Z,20.01
2019-06-10T00:45:17.849Z,19.74
2019-06-10T00:47:41.287Z,19.62
2019-06-10T00:50:08.510Z,19.72
2019-06-10T00:52:32.100Z,19.68
2019-06-10T00:54:58.404Z,19.45
2019-06-10T00:57:24.728Z,19.35
2019-06-10T00:59:51.032Z,19.36
2019-06-10T01:02:17.359Z,19.28
2019-06-10T01:04:43.669Z,19.31
2019-06-10T01:07:12.733Z,19.13
2019-06-10T01:09:36.322Z,19.02
2019-06-10T01:12:02.847Z,18.97
2019-06-10T01:14:28.950Z,19.13
2019-06-10T01:16:55.257Z,19.28
2019-06-10T01:19:22.015Z,19.23
2019-06-10T01:21:47.893Z,19.28
2019-06-10T01:24:14.824Z,19.34
2019-06-10T01:26:41.198Z,19.35
2019-06-10T01:29:07.652Z,19.16
2019-06-10T01:31:33.162Z,18.99
2019-06-10T01:34:00.746Z,19.04
2019-06-10T01:36:25.793Z,19.08
2019-06-10T01:38:52.127Z,19.06
2019-06-10T01:41:18.429Z,19.11
2019-06-10T01:43:44.750Z,19.05
2019-06-10T01:46:12.612Z,18.92
2019-06-10T01:48:44.333Z,18.94
2019-06-10T01:51:03.692Z,18.73
2019-06-10T01:53:31.465Z,18.75
2019-06-10T01:55:56.329Z,18.77
2019-06-10T01:58:23.637Z,18.75
2019-06-10T02:00:50.760Z,18.71
2019-06-10T02:03:17.216Z,18.66
2019-06-10T02:05:42.037Z,18.68
2019-06-10T02:08:08.711Z,18.79
2019-06-10T02:10:34.240Z,18.96
2019-06-10T02:13:01.323Z,18.91
2019-06-10T02:15:26.864Z,18.83
2019-06-10T02:17:53.168Z,18.75
2019-06-10T02:20:22.612Z,18.78
2019-06-10T02:22:45.804Z,18.83
2019-06-10T02:25:13.634Z,18.72
2019-06-10T02:27:38.475Z,18.59
2019-06-10T02:30:15.062Z,18.43
2019-06-10T02:32:37.155Z,18.53
2019-06-10T02:35:14.415Z,18.49
2019-06-10T02:37:31.333Z,18.64
2019-06-10T02:39:50.049Z,18.69
2019-06-10T02:42:19.005Z,18.59
2019-06-10T02:44:44.460Z,18.63
2019-06-10T02:47:08.997Z,18.67
2019-06-10T02:49:52.714Z,18.67
2019-06-10T02:52:03.373Z,18.58
2019-06-10T02:54:31.473Z,18.65
2019-06-10T02:56:54.289Z,18.69
2019-06-10T02:59:26.607Z,18.79
2019-06-10T03:01:46.925Z,18.69
2019-06-10T03:04:13.792Z,18.73
2019-06-10T03:06:40.637Z,18.75
2019-06-10T03:09:05.871Z,18.61
2019-06-10T03:11:36.600Z,18.44
2019-06-10T03:13:58.498Z,18.66
2019-06-10T03:16:25.841Z,18.69
2019-06-10T03:18:52.582Z,18.62
2019-06-10T03:21:17.984Z,18.56
2019-06-10T03:23:43.766Z,18.53
2019-06-10T03:26:12.176Z,18.55
2019-06-10T03:28:36.404Z,18.60
2019-06-10T03:31:05.569Z,18.62
2019-06-10T03:33:39.412Z,18.67
2019-06-10T03:35:55.371Z,18.60
2019-06-10T03:38:23.676Z,18.63
2019-06-10T03:40:48.035Z,18.67
2019-06-10T03:43:14.340Z,18.68
2019-06-10T03:45:42.570Z,18.70
2019-06-10T03:48:07.153Z,18.89
2019-06-10T03:50:33.461Z,18.77
2019-06-10T03:53:01.292Z,18.80
2019-06-10T03:55:27.924Z,18.92
2019-06-10T03:57:52.726Z,19.02
2019-06-10T04:00:19.514Z,19.13
2019-06-10T04:02:45.051Z,19.13
2019-06-10T04:05:13.285Z,19.10
2019-06-10T04:07:37.684Z,19.11
2019-06-10T04:10:04.015Z,19.10
2019-06-10T04:12:32.579Z,19.18
2019-06-10T04:14:56.636Z,19.36
2019-06-10T04:17:25.286Z,19.50
2019-06-10T04:20:02.654Z,19.54
2019-06-10T04:22:15.613Z,19.56
2019-06-10T04:24:43.135Z,19.60
2019-06-10T04:27:08.249Z,19.69
2019-06-10T04:29:34.577Z,19.81
2019-06-10T04:32:02.949Z,20.01
2019-06-10T04:34:29.098Z,20.17
2019-06-10T04:36:53.532Z,20.33
2019-06-10T04:39:20.477Z,20.47
2019-06-10T04:41:46.161Z,20.49
2019-06-10T04:44:13.180Z,20.56
2019-06-10T04:46:38.844Z,20.60
2019-06-10T04:49:05.148Z,20.80
2019-06-10T04:51:32.950Z,20.95
2019-06-10T04:53:57.784Z,21.20
2019-06-10T04:56:26.187Z,21.19
2019-06-10T04:58:52.444Z,21.36
2019-06-10T05:01:16.756Z,21.57
2019-06-10T05:03:43.504Z,21.56
2019-06-10T05:06:09.395Z,21.64
2019-06-10T05:08:35.715Z,21.78
2019-06-10T05:11:03.600Z,21.93
2019-06-10T05:13:29.861Z,22.12
2019-06-10T05:15:54.672Z,22.38
2019-06-10T05:18:23.946Z,22.79
2019-06-10T05:20:57.694Z,23.29
2019-06-10T05:23:13.710Z,23.66
2019-06-10T05:25:40.044Z,24.12
2019-06-10T05:28:06.357Z,24.43
2019-06-10T05:30:34.022Z,24.62
2019-06-10T05:32:59.022Z,24.83
2019-06-10T05:35:26.948Z,26.17
2019-06-10T05:37:52.736Z,27.70
2019-06-10T05:40:17.966Z,28.24
2019-06-10T05:42:44.277Z,29.08
2019-06-10T05:45:12.322Z,29.32
2019-06-10T05:47:36.916Z,29.29
2019-06-10T05:50:03.404Z,28.46
2019-06-10T05:52:29.751Z,27.82
2019-06-10T05:54:55.879Z,28.65
2019-06-10T05:57:23.925Z,29.50
2019-06-10T05:59:48.520Z,30.50
2019-06-10T06:02:14.911Z,31.24
2019-06-10T06:04:42.828Z,31.59
2019-06-10T06:07:07.552Z,31.81
2019-06-10T06:09:35.231Z,31.89
2019-06-10T06:12:02.349Z,31.57
2019-06-10T06:14:27.515Z,31.80
2019-06-10T06:16:53.358Z,31.93
2019-06-10T06:19:19.185Z,31.20
2019-06-10T06:21:47.729Z,29.70
2019-06-10T06:24:12.902Z,29.68
2019-06-10T06:26:39.676Z,30.24
2019-06-10T06:29:04.474Z,29.58
2019-06-10T06:31:32.867Z,30.09
2019-06-10T06:33:57.106Z,30.38
2019-06-10T06:36:23.406Z,29.50
2019-06-10T06:38:49.748Z,28.74
2019-06-10T06:41:16.115Z,29.75
2019-06-10T06:43:45.157Z,30.44
2019-06-10T06:46:08.747Z,30.24
2019-06-10T06:48:38.481Z,30.44
2019-06-10T06:51:05.472Z,30.52
2019-06-10T06:53:33.161Z,29.78
2019-06-10T06:55:55.977Z,28.24
2019-06-10T06:58:20.319Z,27.26
2019-06-10T07:01:00.519Z,28.58
2019-06-10T07:03:12.959Z,29.74
2019-06-10T07:05:40.447Z,30.36
2019-06-10T07:08:05.591Z,30.39
2019-06-10T07:10:33.212Z,30.88
2019-06-10T07:12:58.241Z,31.27
2019-06-10T07:15:24.578Z,31.33
2019-06-10T07:17:52.633Z,29.87
2019-06-10T07:20:17.241Z,30.02
2019-06-10T07:22:46.681Z,30.39
2019-06-10T07:25:12.204Z,30.89
2019-06-10T07:27:38.360Z,30.92
2019-06-10T07:30:11.231Z,30.27
2019-06-10T07:32:28.853Z,30.79
2019-06-10T07:34:55.174Z,30.82
2019-06-10T07:37:23.136Z,30.86
2019-06-10T07:39:47.799Z,30.47
2019-06-10T07:42:14.127Z,29.81
2019-06-10T07:44:43.156Z,29.18
2019-06-10T07:47:06.764Z,29.43
2019-06-10T07:49:33.880Z,29.34
2019-06-10T07:52:12.138Z,30.02
2019-06-10T07:54:25.709Z,29.64
2019-06-10T07:56:53.759Z,29.61
2019-06-10T07:59:18.388Z,30.56
2019-06-10T08:01:51.197Z,30.94
2019-06-10T08:04:12.080Z,30.75
2019-06-10T08:06:37.876Z,30.85
2019-06-10T08:09:03.654Z,31.00
2019-06-10T08:11:29.985Z,29.57
2019-06-10T08:13:56.319Z,29.97
2019-06-10T08:16:23.556Z,30.02
2019-06-10T08:19:15.937Z,30.75
2019-06-10T08:21:15.250Z,31.24
2019-06-10T08:23:44.800Z,31.56
2019-06-10T08:26:07.889Z,30.65
2019-06-10T08:28:35.419Z,30.29
2019-06-10T08:31:03.375Z,30.14
2019-06-10T08:33:26.877Z,30.98
2019-06-10T08:35:59.864Z,30.97
2019-06-10T08:38:19.502Z,29.00
2019-06-10T08:40:48.333Z,29.10
2019-06-10T08:43:13.334Z,30.48
2019-06-10T08:45:38.922Z,30.29
2019-06-10T08:48:04.760Z,29.59
2019-06-10T08:50:33.697Z,28.88
2019-06-10T08:53:12.739Z,30.06
2019-06-10T08:55:23.760Z,31.08
2019-06-10T08:57:51.638Z,31.25
2019-06-10T09:00:18.744Z,31.45
2019-06-10T09:02:45.843Z,31.10
2019-06-10T09:05:09.102Z,30.98
2019-06-10T09:07:35.435Z,30.27
2019-06-10T09:10:02.966Z,29.35
2019-06-10T09:12:33.154Z,29.41
2019-06-10T09:14:54.374Z,28.74
2019-06-10T09:17:22.826Z,28.27
2019-06-10T09:19:49.191Z,28.49
2019-06-10T09:22:13.359Z,29.72
2019-06-10T09:24:40.878Z,28.72
2019-06-10T09:27:06.052Z,29.42
2019-06-10T09:29:32.931Z,28.98
2019-06-10T09:31:58.684Z,27.92
2019-06-10T09:34:25.035Z,27.01
2019-06-10T09:36:56.378Z,26.58
2019-06-10T09:39:17.677Z,26.60
2019-06-10T09:41:52.301Z,26.31
2019-06-10T09:44:12.652Z,26.19
2019-06-10T09:46:36.637Z,25.96
2019-06-10T09:49:02.975Z,26.22
2019-06-10T09:51:29.286Z,26.10
2019-06-10T09:54:03.693Z,25.86
2019-06-10T09:56:23.028Z,25.51
2019-06-10T09:58:50.844Z,25.31
2019-06-10T10:01:14.617Z,25.05
2019-06-10T10:03:42.379Z,24.86
2019-06-10T10:06:14.068Z,24.69
2019-06-10T10:08:33.602Z,24.62
2019-06-10T10:10:59.949Z,24.25
2019-06-10T10:13:26.700Z,23.70
2019-06-10T10:15:54.199Z,23.53
2019-06-10T10:18:18.906Z,23.12
2019-06-10T10:20:48.059Z,24.02
2019-06-10T10:23:13.672Z,25.31
2019-06-10T10:25:37.849Z,25.37
2019-06-10T10:28:04.181Z,25.44
2019-06-10T10:30:33.055Z,25.74
2019-06-10T10:32:56.829Z,24.85
2019-06-10T10:35:24.263Z,24.46
2019-06-10T10:37:51.609Z,24.10
2019-06-10T10:40:15.784Z,23.83
2019-06-10T10:42:47.856Z,24.20
2019-06-10T10:45:08.405Z,25.06
2019-06-10T10:47:34.732Z,24.82
2019-06-10T10:50:02.867Z,24.13
2019-06-10T10:52:27.383Z,24.35
2019-06-10T10:54:54.362Z,24.81
2019-06-10T10:57:23.013Z,25.30
2019-06-10T10:59:47.743Z,25.37
2019-06-10T11:02:12.738Z,25.75
2019-06-10T11:04:38.989Z,25.22
2019-06-10T11:07:05.296Z,24.15
2019-06-10T11:09:33.036Z,23.69
2019-06-10T11:11:57.937Z,23.67
2019-06-10T11:14:24.236Z,23.82
2019-06-10T11:16:54.551Z,23.79
2019-06-10T11:19:16.873Z,23.67
2019-06-10T11:21:43.346Z,23.81
2019-06-10T11:24:09.541Z,24.20
2019-06-10T11:26:35.871Z,24.42
2019-06-10T11:29:03.057Z,24.23
2019-06-10T11:31:28.498Z,24.30
2019-06-10T11:33:58.688Z,24.12
2019-06-10T11:36:22.835Z,24.15
2019-06-10T11:38:48.583Z,24.11
2019-06-10T11:41:13.864Z,24.36
2019-06-10T11:43:42.657Z,24.40
2019-06-10T11:46:07.790Z,24.35
2019-06-10T11:48:33.045Z,24.33
2019-06-10T11:51:00.902Z,24.17
2019-06-10T11:53:28.622Z,24.24
2019-06-10T11:55:51.818Z,24.32
2019-06-10T11:58:18.053Z,24.23
2019-06-10T12:00:44.379Z,24.38
2019-06-10T12:03:13.026Z,23.91
2019-06-10T12:05:37.018Z,23.44
2019-06-10T12:08:03.348Z,23.21
2019-06-10T12:10:29.649Z,22.80
2019-06-10T12:12:58.906Z,23.00
2019-06-10T12:15:22.767Z,23.16
2019-06-10T12:17:53.572Z,23.22
2019-06-10T12:20:14.939Z,23.26
2019-06-10T12:22:42.360Z,23.36
2019-06-10T12:25:28.502Z,23.30
2019-06-10T12:27:33.885Z,23.19
2019-06-10T12:30:04.284Z,23.50
2019-06-10T12:32:26.541Z,23.74
2019-06-10T12:34:53.231Z,23.99
2019-06-10T12:37:19.193Z,24.15
2019-06-10T12:39:45.497Z,24.45
2019-06-10T12:42:14.145Z,24.62
2019-06-10T12:44:38.162Z,24.66
2019-06-10T12:47:07.858Z,24.92
2019-06-10T12:49:32.038Z,25.01
2019-06-10T12:51:57.465Z,25.02
2019-06-10T12:54:23.440Z,25.49
2019-06-10T12:56:49.770Z,25.88
2019-06-10T12:59:16.070Z,26.16
2019-06-10T13:01:44.847Z,26.77
2019-06-10T13:04:09.584Z,26.62
2019-06-10T13:06:35.055Z,26.49
2019-06-10T13:09:02.620Z,26.61
2019-06-10T13:11:27.668Z,26.26
2019-06-10T13:13:54.004Z,25.74
2019-06-10T13:16:20.318Z,25.78
2019-06-10T13:18:46.636Z,26.14
2019-06-10T13:21:17.258Z,26.46
2019-06-10T13:23:39.274Z,25.95
2019-06-10T13:26:10.856Z,25.71
2019-06-10T13:28:32.641Z,25.25
2019-06-10T13:30:59.097Z,25.27
2019-06-10T13:33:24.550Z,25.33
2019-06-10T13:35:53.507Z,25.35
2019-06-10T13:38:17.184Z,25.29
2019-06-10T13:40:43.573Z,24.93
2019-06-10T13:43:12.241Z,25.05
2019-06-10T13:45:36.130Z,25.15
2019-06-10T13:48:05.860Z,24.93
2019-06-10T13:50:28.788Z,24.40
2019-06-10T13:52:55.094Z,24.03
2019-06-10T13:55:22.323Z,23.68
2019-06-10T13:57:47.735Z,23.31
2019-06-10T14:00:14.642Z,23.18
2019-06-10T14:02:42.983Z,22.85
2019-06-10T14:05:10.284Z,22.73
2019-06-10T14:07:33.020Z,22.76
2019-06-10T14:10:00.409Z,22.82
2019-06-10T14:12:26.315Z,22.87
2019-06-10T14:14:53.320Z,22.97
2019-06-10T14:17:19.572Z,23.09
2019-06-10T14:19:44.631Z,23.27
2019-06-10T14:22:12.189Z,23.27
2019-06-10T14:24:37.269Z,23.30
2019-06-10T14:27:06.850Z,23.16
2019-06-10T14:29:29.920Z,23.16
2019-06-10T14:31:56.229Z,23.23
2019-06-10T14:34:22.649Z,23.24
2019-06-10T14:36:48.858Z,23.23
2019-06-10T14:39:16.029Z,23.31
2019-06-10T14:41:43.021Z,23.46
2019-06-10T14:44:08.679Z,23.44
2019-06-10T14:46:34.142Z,23.35
2019-06-10T14:49:02.315Z,23.29
2019-06-10T14:51:26.768Z,23.29
2019-06-10T14:53:53.140Z,23.32
2019-06-10T14:56:19.847Z,23.15
2019-06-10T14:58:45.785Z,23.18
2019-06-10T15:01:18.832Z,23.23
2019-06-10T15:03:38.425Z,23.23
2019-06-10T15:06:04.731Z,23.27
2019-06-10T15:08:32.255Z,23.51
2019-06-10T15:10:57.367Z,23.58
2019-06-10T15:13:23.821Z,23.58
2019-06-10T15:15:50.006Z,23.47
2019-06-10T15:18:18.137Z,23.51
2019-06-10T15:20:42.914Z,23.44
2019-06-10T15:23:11.496Z,23.47
2019-06-10T15:25:49.262Z,23.53
2019-06-10T15:28:03.271Z,23.60
2019-06-10T15:30:31.364Z,23.76
2019-06-10T15:32:55.264Z,23.75
2019-06-10T15:35:24.304Z,23.70
2019-06-10T15:37:47.900Z,23.73
2019-06-10T15:40:16.659Z,23.75
2019-06-10T15:42:42.644Z,23.63
2019-06-10T15:45:06.888Z,23.64
2019-06-10T15:47:33.192Z,23.68
2019-06-10T15:49:59.523Z,23.61
2019-06-10T15:52:25.840Z,23.58
2019-06-10T15:54:52.550Z,23.55
2019-06-10T15:57:30.774Z,23.55
2019-06-10T15:59:44.801Z,23.51
2019-06-10T16:02:11.935Z,23.52
2019-06-10T16:04:37.460Z,23.45
2019-06-10T16:07:03.770Z,23.44
2019-06-10T16:09:32.157Z,23.48
2019-06-10T16:11:56.404Z,23.48
2019-06-10T16:14:25.150Z,23.45
2019-06-10T16:16:49.057Z,23.41
2019-06-10T16:19:16.708Z,23.38
2019-06-10T16:21:42.894Z,23.38
2019-06-10T16:24:08.029Z,23.37
2019-06-10T16:26:35.529Z,23.27
2019-06-10T16:29:02.678Z,23.25
2019-06-10T16:31:27.631Z,23.21
2019-06-10T16:33:53.314Z,23.19
2019-06-10T16:36:21.112Z,23.12
2019-06-10T16:38:45.985Z,23.04
2019-06-10T16:41:12.449Z,22.89
2019-06-10T16:43:38.634Z,22.80
2019-06-10T16:46:04.944Z,22.75
2019-06-10T16:48:33.422Z,22.65
2019-06-10T16:50:57.578Z,22.60
2019-06-10T16:53:28.509Z,22.44
2019-06-10T16:55:52.708Z,22.32
2019-06-10T16:58:18.179Z,22.30
2019-06-10T17:00:43.318Z,22.30
2019-06-10T17:03:09.188Z,22.33
2019-06-10T17:05:35.516Z,22.36
2019-06-10T17:08:03.292Z,22.26
2019-06-10T17:10:29.675Z,22.12
2019-06-10T17:12:54.459Z,22.01
2019-06-10T17:15:21.101Z,22.11
2019-06-10T17:17:47.094Z,22.05
2019-06-10T17:20:13.405Z,22.07
2019-06-10T17:22:39.732Z,22.11
2019-06-10T17:25:13.096Z,22.04
2019-06-10T17:27:39.273Z,21.93
2019-06-10T17:30:05.617Z,21.84
2019-06-10T17:32:32.920Z,21.95
2019-06-10T17:34:58.233Z,21.96
2019-06-10T17:37:24.537Z,22.01
2019-06-10T17:39:52.922Z,22.05
2019-06-10T17:42:17.171Z,22.08
2019-06-10T17:44:43.486Z,22.00
2019-06-10T17:47:09.806Z,21.85
2019-06-10T17:49:36.112Z,21.84
2019-06-10T17:52:02.666Z,21.89
2019-06-10T17:54:28.767Z,21.89
2019-06-10T17:56:55.070Z,21.87
2019-06-10T17:59:22.472Z,21.98
2019-06-10T18:01:47.700Z,21.92
2019-06-10T18:04:14.008Z,21.83
2019-06-10T18:06:42.467Z,21.79
2019-06-10T18:09:06.682Z,22.05
2019-06-10T18:11:35.503Z,22.12
2019-06-10T18:13:59.339Z,22.01
2019-06-10T18:16:26.170Z,21.94
2019-06-10T18:18:52.537Z,21.91
2019-06-10T18:21:18.340Z,21.88
2019-06-10T18:23:44.662Z,21.88
2019-06-10T18:26:12.369Z,21.88
2019-06-10T18:28:57.765Z,21.81
2019-06-10T18:31:03.618Z,21.67
2019-06-10T18:33:29.921Z,21.69
2019-06-10T18:35:56.251Z,21.69
2019-06-10T18:38:22.553Z,21.76
2019-06-10T18:40:48.883Z,21.73
2019-06-10T18:43:18.110Z,21.57
2019-06-10T18:45:41.548Z,21.45
2019-06-10T18:48:08.049Z,21.35
2019-06-10T18:50:36.173Z,21.24
2019-06-10T18:53:00.875Z,21.16
2019-06-10T18:55:27.036Z,21.11
2019-06-10T18:57:53.364Z,20.98
2019-06-10T19:00:19.685Z,20.80
2019-06-10T19:02:46.034Z,20.88
2019-06-10T19:05:13.041Z,21.09
2019-06-10T19:07:39.917Z,21.11
2019-06-10T19:10:04.996Z,21.07
2019-06-10T19:12:33.679Z,21.04
2019-06-10T19:14:57.627Z,21.17
2019-06-10T19:17:23.935Z,21.06
2019-06-10T19:19:50.265Z,20.83
2019-06-10T19:22:16.625Z,20.85
2019-06-10T19:24:44.789Z,20.94
2019-06-10T19:27:09.262Z,20.78
2019-06-10T19:29:44.342Z,20.66
2019-06-10T19:32:03.697Z,20.61
2019-06-10T19:34:28.243Z,20.60
2019-06-10T19:36:54.576Z,20.65
2019-06-10T19:39:22.254Z,20.52
2019-06-10T19:41:47.683Z,20.51
2019-06-10T19:44:13.518Z,20.46
2019-06-10T19:46:39.827Z,20.36
2019-06-10T19:49:07.265Z,20.27
2019-06-10T19:51:32.982Z,20.31
2019-06-10T19:53:58.790Z,20.43
2019-06-10T19:56:26.546Z,20.32
2019-06-10T19:58:52.980Z,20.30
2019-06-10T20:01:17.746Z,20.33
2019-06-10T20:03:46.747Z,20.28
2019-06-10T20:06:12.862Z,20.34
2019-06-10T20:08:37.925Z,20.42
2019-06-10T20:11:03.521Z,20.49
2019-06-10T20:13:29.339Z,20.50
2019-06-10T20:15:55.648Z,20.51
2019-06-10T20:18:22.637Z,20.54
2019-06-10T20:20:49.037Z,20.54
2019-06-10T20:23:14.610Z,20.51
2019-06-10T20:25:43.346Z,20.53
2019-06-10T20:28:07.265Z,20.58
2019-06-10T20:30:33.576Z,20.57
2019-06-10T20:33:03.042Z,20.54
2019-06-10T20:35:26.231Z,20.49
2019-06-10T20:37:53.859Z,20.41
2019-06-10T20:40:18.838Z,20.14
2019-06-10T20:42:45.163Z,19.56
2019-06-10T20:45:13.158Z,18.86
2019-06-10T20:47:37.811Z,18.87
2019-06-10T20:50:04.109Z,18.83
2019-06-10T20:52:32.470Z,18.49
2019-06-10T20:54:56.746Z,18.14
2019-06-10T20:57:23.077Z,17.96
2019-06-10T20:59:49.867Z,17.81
2019-06-10T21:02:15.709Z,18.07
2019-06-10T21:04:44.061Z,18.30
2019-06-10T21:07:08.340Z,18.41
2019-06-10T21:09:34.650Z,18.34
2019-06-10T21:12:02.097Z,18.27
2019-06-10T21:14:27.369Z,18.10
2019-06-10T21:16:53.778Z,18.07
2019-06-10T21:19:20.024Z,18.02
2019-06-10T21:21:48.655Z,18.38
2019-06-10T21:24:12.715Z,18.85
2019-06-10T21:26:38.980Z,19.13
2019-06-10T21:29:05.302Z,19.31
2019-06-10T21:31:32.570Z,19.08
2019-06-10T21:33:57.933Z,18.87
2019-06-10T21:36:24.236Z,18.75
2019-06-10T21:38:51.839Z,18.71
2019-06-10T21:41:16.875Z,18.76
2019-06-10T21:43:49.383Z,18.68
2019-06-10T21:46:09.519Z,18.52
2019-06-10T21:48:35.822Z,18.42
2019-06-10T21:51:02.156Z,18.58
2019-06-10T21:53:28.460Z,18.44
2019-06-10T21:55:55.311Z,18.44
2019-06-10T21:58:22.501Z,18.43
2019-06-10T22:00:55.681Z,18.51
2019-06-10T22:03:13.739Z,18.46
2019-06-10T22:05:42.454Z,18.31
2019-06-10T22:08:06.369Z,18.32
2019-06-10T22:10:33.577Z,18.35
2019-06-10T22:12:59.006Z,18.21
2019-06-10T22:15:25.306Z,18.18
2019-06-10T22:17:53.351Z,18.17
2019-06-10T22:20:17.930Z,18.11
2019-06-10T22:22:44.444Z,18.11
2019-06-10T22:25:13.012Z,18.28
2019-06-10T22:27:36.876Z,18.34
2019-06-10T22:30:10.943Z,18.35
2019-06-10T22:32:29.510Z,18.27
2019-06-10T22:34:57.020Z,18.46
2019-06-10T22:37:23.781Z,18.48
2019-06-10T22:39:48.438Z,18.45
2019-06-10T22:42:14.738Z,18.36
2019-06-10T22:44:42.353Z,18.26
2019-06-10T22:47:07.362Z,18.22
2019-06-10T22:49:33.684Z,18.11
2019-06-10T22:52:00.381Z,18.13
2019-06-10T22:54:26.305Z,18.07
2019-06-10T22:56:56.230Z,17.97
2019-06-10T22:59:18.931Z,18.03
2019-06-10T23:01:45.268Z,18.07
2019-06-10T23:04:13.432Z,18.06
2019-06-10T23:06:37.878Z,18.26
2019-06-10T23:09:04.198Z,18.43
2019-06-10T23:11:32.333Z,18.31
2019-06-10T23:13:58.077Z,18.16
2019-06-10T23:16:23.141Z,18.01
2019-06-10T23:18:49.446Z,18.07
2019-06-10T23:21:15.772Z,18.28
2019-06-10T23:23:43.125Z,18.33
2019-06-10T23:26:08.394Z,18.27
2019-06-10T23:28:34.700Z,18.28
2019-06-10T23:31:02.417Z,18.42
2019-06-10T23:33:27.336Z,18.48
2019-06-10T23:35:54.520Z,18.75
2019-06-10T23:38:19.976Z,18.85
2019-06-10T23:40:46.282Z,18.79
2019-06-10T23:43:13.192Z,18.67
2019-06-10T23:45:38.932Z,18.38
2019-06-10T23:48:05.295Z,18.39
2019-06-10T23:50:32.898Z,18.34
2019-06-10T23:53:01.005Z,18.19
2019-06-10T23:55:24.191Z,18.30
2019-06-10T23:57:50.511Z,18.60
